Time;durP1;ratioP1;P1;durP2;ratioP2;P2;SDS_P1;SDS_P2;PMS_P1;PMS_P2;Temp;Humidity;BMP_temperature;BMP_pressure;BME280_temperature;BME280_humidity;BME280_pressure;Samples;Min_cycle;Max_cycle;Signal;HPM_P1;HPM_P2
2023/05/26 00:00:32;;;;;;;10.10;8.50;;;;;;;19.65;60.05;100452.20;105167;1259;64016;-52
2023/05/26 00:02:59;;;;;;;10.80;8.70;;;;;;;19.59;60.25;100453.61;108699;1257;58598;-52
2023/05/26 00:05:27;;;;;;;11.50;9.10;;;;;;;19.54;60.37;100451.92;108775;1258;59000;-52
2023/05/26 00:07:55;;;;;;;12.80;9.00;;;;;;;19.49;60.40;100450.13;108773;1258;64486;-52
2023/05/26 00:10:24;;;;;;;9.60;8.20;;;;;;;19.43;60.45;100448.48;108781;1259;61142;-52
2023/05/26 00:12:51;;;;;;;10.70;8.40;;;;;;;19.38;60.70;100449.70;108795;1254;63948;-52
2023/05/26 00:15:18;;;;;;;11.10;8.60;;;;;;;19.36;60.87;100451.48;108699;1258;60291;-52
2023/05/26 00:17:47;;;;;;;10.30;7.90;;;;;;;19.35;60.87;100450.71;108775;1255;58382;-53
2023/05/26 00:20:14;;;;;;;11.90;8.60;;;;;;;19.32;60.98;100451.33;108765;1253;66015;-52
2023/05/26 00:22:40;;;;;;;12.40;8.90;;;;;;;19.31;60.97;100453.97;105533;1263;63071;-52
2023/05/26 00:25:08;;;;;;;10.40;8.70;;;;;;;19.29;60.94;100457.95;105221;1259;63685;-52
2023/05/26 00:27:36;;;;;;;11.70;8.80;;;;;;;19.27;60.96;100452.52;105258;1259;60559;-52
2023/05/26 00:30:03;;;;;;;10.20;9.10;;;;;;;19.23;60.89;100450.84;107196;1254;60438;-53
2023/05/26 00:32:32;;;;;;;11.30;8.90;;;;;;;19.19;61.04;100451.14;105152;1258;65274;-54
2023/05/26 00:34:58;;;;;;;13.20;9.50;;;;;;;19.16;61.17;100448.45;105165;1260;63958;-53
2023/05/26 00:37:47;;;;;;;10.00;9.00;;;;;;;19.11;61.61;100451.81;105224;1259;63933;-51
2023/05/26 00:40:23;;;;;;;14.60;8.00;;;;;;;19.10;61.82;100452.48;108427;1254;58544;-52
2023/05/26 00:42:50;;;;;;;10.60;8.90;;;;;;;19.10;61.82;100452.49;107519;1259;60741;-51
2023/05/26 00:45:17;;;;;;;9.90;8.40;;;;;;;19.09;61.89;100450.87;105200;1258;67117;-52
2023/05/26 00:47:43;;;;;;;10.70;9.10;;;;;;;19.06;61.95;100455.45;105127;1260;61884;-52
2023/05/26 00:50:12;;;;;;;11.70;8.90;;;;;;;19.00;61.74;100455.39;105153;1260;63989;-51
2023/05/26 00:52:40;;;;;;;10.60;9.20;;;;;;;18.93;61.70;100461.52;108864;1254;58855;-53
2023/05/26 00:55:08;;;;;;;10.70;8.60;;;;;;;18.85;61.74;100466.89;107102;1256;59259;-51
2023/05/26 00:57:45;;;;;;;10.10;8.70;;;;;;;18.77;61.88;100468.48;106724;1263;68464;-51
2023/05/26 01:00:13;;;;;;;10.40;8.30;;;;;;;18.74;61.86;100463.34;105024;1260;61702;-50
2023/05/26 01:02:40;;;;;;;10.80;9.40;;;;;;;18.73;62.01;100472.66;105103;1254;62894;-51
2023/05/26 01:05:08;;;;;;;11.20;9.10;;;;;;;18.73;61.96;100468.04;108726;1258;61702;-52
2023/05/26 01:07:36;;;;;;;11.20;9.10;;;;;;;18.67;62.10;100459.10;108805;1258;60537;-52
2023/05/26 01:10:03;;;;;;;13.20;9.40;;;;;;;18.64;62.36;100462.70;108792;1254;64091;-53
2023/05/26 01:13:08;;;;;;;10.50;9.30;;;;;;;18.63;62.41;100465.83;108676;1258;61667;-53
2023/05/26 01:16:07;;;;;;;15.00;9.50;;;;;;;18.61;62.45;100461.77;108479;1254;64138;-52
2023/05/26 01:18:45;;;;;;;11.50;8.90;;;;;;;18.56;62.64;100465.15;106543;1254;60814;-51
2023/05/26 01:21:13;;;;;;;11.10;8.40;;;;;;;18.61;62.79;100464.45;105261;1254;60581;-51
2023/05/26 01:23:58;;;;;;;14.70;9.90;;;;;;;18.64;62.78;100466.57;105184;1258;65780;-51
2023/05/26 01:26:42;;;;;;;17.50;10.50;;;;;;;18.61;63.04;100463.23;105170;1258;62530;-52
2023/05/26 01:29:11;;;;;;;13.10;9.90;;;;;;;18.58;63.35;100464.10;105152;1268;63446;-51
2023/05/26 01:31:39;;;;;;;14.20;10.40;;;;;;;18.54;63.67;100467.23;105212;1259;60466;-51
2023/05/26 01:34:06;;;;;;;13.10;10.20;;;;;;;18.51;63.90;100470.23;105277;1259;60547;-53
2023/05/26 01:36:35;;;;;;;13.50;10.60;;;;;;;18.50;64.06;100475.14;108767;1257;65125;-52
2023/05/26 01:39:02;;;;;;;13.00;10.40;;;;;;;18.65;63.70;100472.73;108892;1253;64779;-52
2023/05/26 01:41:43;;;;;;;11.60;10.10;;;;;;;18.71;63.22;100472.84;108605;1253;62819;-52
2023/05/26 01:44:37;;;;;;;13.30;10.20;;;;;;;18.60;63.64;100467.77;108793;1254;58468;-52
2023/05/26 01:47:04;;;;;;;14.10;10.50;;;;;;;18.48;63.86;100467.52;108644;1254;59170;-52
2023/05/26 01:49:31;;;;;;;13.30;10.20;;;;;;;18.43;64.05;100472.53;105724;1255;65151;-51
2023/05/26 01:52:03;;;;;;;11.40;10.20;;;;;;;18.52;63.79;100467.90;108753;1254;61664;-52
2023/05/26 01:54:34;;;;;;;16.20;10.50;;;;;;;18.55;63.29;100468.61;108843;1254;63726;-53
2023/05/26 01:57:00;;;;;;;13.00;10.60;;;;;;;18.60;63.31;100468.96;108643;1254;58938;-51
2023/05/26 01:59:29;;;;;;;11.80;9.30;;;;;;;18.69;62.95;100467.95;108702;1253;58925;-52
2023/05/26 02:01:56;;;;;;;11.50;9.60;;;;;;;18.75;62.72;100469.59;108681;1253;64996;-52
2023/05/26 02:04:23;;;;;;;11.60;10.40;;;;;;;18.71;62.42;100466.67;106846;1254;61493;-51
2023/05/26 02:06:54;;;;;;;14.60;10.00;;;;;;;18.57;62.72;100467.95;105343;1257;63842;-49
2023/05/26 02:09:21;;;;;;;12.30;10.60;;;;;;;18.52;62.69;100471.66;108805;1254;58991;-51
2023/05/26 02:11:48;;;;;;;12.60;10.50;;;;;;;18.49;62.71;100472.53;108697;1254;58235;-51
2023/05/26 02:14:15;;;;;;;12.80;9.90;;;;;;;18.44;62.77;100473.85;108874;1254;58661;-51
2023/05/26 02:16:43;;;;;;;12.00;10.30;;;;;;;18.40;62.66;100470.77;108856;1254;61478;-51
2023/05/26 02:19:10;;;;;;;13.00;9.70;;;;;;;18.35;62.61;100467.89;108716;1254;63919;-51
2023/05/26 02:21:37;;;;;;;11.50;10.10;;;;;;;18.32;62.65;100467.63;107858;1259;60585;-52
2023/05/26 02:24:04;;;;;;;12.50;11.20;;;;;;;18.30;62.67;100472.66;108615;1254;59447;-52
2023/05/26 02:26:31;;;;;;;13.00;10.30;;;;;;;18.29;62.68;100476.20;108795;1257;66306;-53
2023/05/26 02:28:57;;;;;;;12.00;10.70;;;;;;;18.29;62.80;100473.40;108918;1254;61434;-52
2023/05/26 02:31:24;;;;;;;13.90;10.70;;;;;;;18.29;62.83;100477.73;108763;1254;63923;-52
2023/05/26 02:33:51;;;;;;;15.70;10.90;;;;;;;18.30;62.72;100479.29;108895;1253;58456;-52
2023/05/26 02:36:18;;;;;;;13.50;11.30;;;;;;;18.30;62.36;100480.83;108837;1256;59777;-52
2023/05/26 02:38:44;;;;;;;14.50;10.60;;;;;;;18.30;62.25;100481.56;108908;1254;64056;-53
2023/05/26 02:41:11;;;;;;;13.40;10.60;;;;;;;18.36;62.25;100477.14;108876;1254;60916;-52
2023/05/26 02:43:39;;;;;;;11.40;10.10;;;;;;;18.43;62.11;100474.95;108867;1253;63887;-52
2023/05/26 02:46:06;;;;;;;12.00;10.80;;;;;;;18.46;61.74;100479.33;108910;1253;59059;-52
2023/05/26 02:48:37;;;;;;;13.60;11.60;;;;;;;18.45;61.61;100477.77;108856;1254;59350;-52
2023/05/26 02:51:04;;;;;;;12.70;10.60;;;;;;;18.44;61.66;100479.73;108783;1254;65300;-52
2023/05/26 02:53:30;;;;;;;14.20;11.00;;;;;;;18.40;61.77;100479.43;108890;1254;60159;-52
2023/05/26 02:55:57;;;;;;;13.40;10.90;;;;;;;18.36;62.06;100482.67;105761;1268;63882;-51
2023/05/26 02:58:24;;;;;;;12.80;10.70;;;;;;;18.36;62.35;100485.47;105293;1253;60542;-51
2023/05/26 03:00:52;;;;;;;14.80;10.80;;;;;;;18.38;62.51;100484.39;105188;1260;60397;-54
2023/05/26 03:03:19;;;;;;;13.60;11.00;;;;;;;18.36;62.86;100483.17;108734;1253;65327;-53
2023/05/26 03:05:46;;;;;;;13.70;11.90;;;;;;;18.37;63.14;100481.88;107661;1254;61547;-52
2023/05/26 03:08:14;;;;;;;14.00;11.70;;;;;;;18.39;63.20;100483.09;108834;1253;64465;-53
2023/05/26 03:10:43;;;;;;;12.80;11.50;;;;;;;18.43;63.34;100480.12;108673;1257;59517;-52
2023/05/26 03:13:10;;;;;;;14.10;11.00;;;;;;;18.52;63.31;100481.25;108725;1254;58810;-53
2023/05/26 03:15:36;;;;;;;12.50;10.60;;;;;;;18.61;63.39;100481.02;108780;1254;64832;-53
2023/05/26 03:18:07;;;;;;;12.20;10.50;;;;;;;18.70;63.30;100484.23;108717;1254;61507;-51
2023/05/26 03:20:34;;;;;;;14.40;11.80;;;;;;;18.80;63.30;100488.84;108648;1254;73576;-52
2023/05/26 03:23:01;;;;;;;15.00;11.60;;;;;;;18.87;63.08;100489.09;108718;1253;58453;-52
2023/05/26 03:25:28;;;;;;;12.40;10.90;;;;;;;18.90;63.00;100487.51;108830;1253;60280;-51
2023/05/26 03:27:57;;;;;;;13.70;11.50;;;;;;;18.91;63.03;100490.54;107224;1258;65263;-52
2023/05/26 03:30:24;;;;;;;12.40;11.00;;;;;;;18.91;63.12;100490.58;103926;1269;61881;-52
2023/05/26 03:32:52;;;;;;;12.70;11.40;;;;;;;18.93;63.23;100491.27;104344;1266;64122;-50
2023/05/26 03:36:08;;;;;;;13.10;11.60;;;;;;;18.97;63.18;100492.61;106980;1265;59449;-49
2023/05/26 03:38:38;;;;;;;12.70;11.40;;;;;;;19.01;63.27;100491.61;104735;1267;60504;-52
2023/05/26 03:41:04;;;;;;;15.60;11.70;;;;;;;19.05;63.31;100490.76;103860;1263;65096;-52
2023/05/26 03:43:33;;;;;;;13.00;11.60;;;;;;;19.12;63.10;100492.77;104710;1267;62819;-50
2023/05/26 03:46:01;;;;;;;16.60;11.30;;;;;;;19.17;62.80;100495.49;108089;1263;65499;-51
2023/05/26 03:48:28;;;;;;;12.70;11.20;;;;;;;19.20;62.61;100495.96;108138;1264;58509;-51
2023/05/26 03:50:55;;;;;;;14.60;11.30;;;;;;;19.28;62.57;100494.35;108356;1263;58307;-51
2023/05/26 03:53:22;;;;;;;13.10;11.20;;;;;;;19.40;62.07;100494.20;108293;1263;65431;-51
2023/05/26 03:55:48;;;;;;;14.80;11.80;;;;;;;19.47;61.77;100493.91;108217;1262;60631;-52
2023/05/26 03:58:15;;;;;;;12.80;10.90;;;;;;;19.53;61.68;100494.73;108259;1263;64037;-51
2023/05/26 04:00:42;;;;;;;13.30;11.20;;;;;;;19.58;61.59;100497.00;104369;1277;59721;-53
2023/05/26 04:03:09;;;;;;;13.00;11.60;;;;;;;19.60;61.50;100493.31;108436;1260;58659;-51
2023/05/26 04:05:35;;;;;;;12.90;11.60;;;;;;;19.66;61.46;100492.59;108359;1257;65007;-50
2023/05/26 04:08:02;;;;;;;17.00;11.00;;;;;;;19.75;61.01;100491.30;104123;1258;63221;-50
2023/05/26 04:10:29;;;;;;;14.10;10.90;;;;;;;19.83;60.79;100489.84;104731;1262;64243;-50
2023/05/26 04:12:57;;;;;;;12.70;11.20;;;;;;;19.92;60.80;100494.67;105049;1253;61081;-51
2023/05/26 04:15:24;;;;;;;13.60;12.10;;;;;;;19.97;60.55;100491.76;105136;1257;60364;-53
2023/05/26 04:17:51;;;;;;;14.30;11.60;;;;;;;20.00;60.49;100494.02;108812;1254;67640;-52
2023/05/26 04:20:19;;;;;;;13.90;12.40;;;;;;;20.02;60.74;100499.98;108904;1252;60511;-52
2023/05/26 04:22:46;;;;;;;14.20;12.70;;;;;;;20.06;60.59;100499.73;108863;1253;62458;-52
2023/05/26 04:25:13;;;;;;;13.50;11.20;;;;;;;20.12;60.50;100503.69;108700;1254;60669;-52
2023/05/26 04:27:48;;;;;;;16.10;11.70;;;;;;;20.18;60.64;100509.83;106802;1255;61108;-51
2023/05/26 04:30:31;;;;;;;18.20;12.70;;;;;;;20.25;61.02;100510.30;105191;1257;67429;-51
2023/05/26 04:33:15;;;;;;;14.00;11.90;;;;;;;20.37;60.67;100508.50;105328;1257;60573;-51
2023/05/26 04:36:02;;;;;;;15.90;11.80;;;;;;;20.37;60.52;100507.92;104978;1257;66457;-50
2023/05/26 04:38:29;;;;;;;15.10;12.30;;;;;;;20.35;60.88;100505.75;108869;1253;58988;-51
2023/05/26 04:40:57;;;;;;;13.90;11.50;;;;;;;20.41;60.85;100506.63;108908;1253;58641;-51
2023/05/26 04:43:24;;;;;;;12.20;11.00;;;;;;;20.49;60.84;100505.63;107570;1253;63846;-51
2023/05/26 04:45:51;;;;;;;15.30;11.70;;;;;;;20.60;60.98;100511.48;105237;1259;62175;-50
2023/05/26 04:48:25;;;;;;;13.60;11.50;;;;;;;20.69;60.55;100514.17;108915;1253;66105;-51
2023/05/26 04:51:01;;;;;;;15.30;12.80;;;;;;;20.77;60.02;100509.26;108559;1253;58314;-52
2023/05/26 04:53:27;;;;;;;14.80;13.20;;;;;;;20.84;59.48;100504.33;108536;1254;60791;-52
2023/05/26 04:55:54;;;;;;;25.50;11.60;;;;;;;20.88;59.19;100503.27;108674;1253;65159;-52
2023/05/26 04:58:21;;;;;;;13.90;12.20;;;;;;;20.91;59.11;100502.89;108696;1258;60587;-51
2023/05/26 05:00:48;;;;;;;13.70;11.60;;;;;;;21.00;58.86;100506.41;108742;1253;64138;-52
2023/05/26 05:03:42;;;;;;;13.40;11.80;;;;;;;21.13;58.75;100508.41;108453;1253;253086;-52
2023/05/26 05:19:10;;;;;;;14.90;11.80;;;;;;;21.53;57.19;100522.89;102564;1288;605007;-52
2023/05/26 05:22:02;;;;;;;14.00;11.30;;;;;;;22.04;54.64;100533.34;106814;1271;182680;-52
2023/05/26 05:24:29;;;;;;;13.10;11.30;;;;;;;22.04;54.20;100532.88;108082;1266;57779;-52
2023/05/26 05:26:57;;;;;;;13.90;11.00;;;;;;;22.03;54.08;100536.48;107983;1267;63264;-52
2023/05/26 05:29:24;;;;;;;14.20;10.70;;;;;;;22.04;54.11;100534.08;107912;1266;60422;-52
2023/05/26 05:31:53;;;;;;;13.00;10.90;;;;;;;22.06;54.23;100533.61;107957;1266;63855;-53
2023/05/26 05:34:20;;;;;;;15.20;11.80;;;;;;;22.08;54.02;100529.77;104598;1269;58789;-53
2023/05/26 05:36:49;;;;;;;14.10;12.20;;;;;;;22.10;53.08;100530.86;104242;1254;59374;-66
2023/05/26 05:39:16;;;;;;;12.30;11.10;;;;;;;22.08;52.83;100529.11;106540;1257;64146;-66
2023/05/26 05:41:44;;;;;;;14.20;10.50;;;;;;;22.09;52.75;100531.19;106713;1257;60173;-61
2023/05/26 05:44:10;;;;;;;12.50;11.10;;;;;;;22.20;52.96;100530.34;105469;1254;64038;-67
2023/05/26 05:46:39;;;;;;;11.90;10.60;;;;;;;22.27;52.68;100528.19;104133;1259;59763;-64
2023/05/26 05:49:34;;;;;;;;;;;;;;;22.32;52.13;100526.27;106581;1254;59912;-69
2023/05/26 05:52:02;;;;;;;11.30;10.20;;;;;;;22.36;51.99;100529.17;106731;1254;64245;-69
2023/05/26 05:54:29;;;;;;;10.70;9.10;;;;;;;22.41;52.07;100530.35;106725;1254;61739;-68
2023/05/26 05:56:57;;;;;;;12.10;9.00;;;;;;;22.49;51.47;100532.38;106541;1259;64300;-67
2023/05/26 05:59:24;;;;;;;13.50;8.60;;;;;;;22.58;50.69;100532.23;106626;1258;60268;-73
2023/05/26 06:01:51;;;;;;;11.40;8.10;;;;;;;22.66;50.04;100527.73;106676;1255;59573;-73
2023/05/26 06:04:49;;;;;;;9.40;8.40;;;;;;;22.72;49.81;100526.05;106653;1259;64896;-74
2023/05/26 06:07:16;;;;;;;11.10;8.40;;;;;;;22.80;49.04;100521.97;106499;1259;60248;-74
2023/05/26 06:09:42;;;;;;;9.30;7.80;;;;;;;22.87;49.15;100523.40;106523;1259;62567;-79
2023/05/26 06:12:09;;;;;;;11.70;7.80;;;;;;;22.93;48.75;100522.90;106664;1255;59587;-73
2023/05/26 06:14:42;;;;;;;9.00;7.60;;;;;;;22.98;47.90;100527.04;106736;1254;59612;-75
2023/05/26 06:17:09;;;;;;;9.80;7.80;;;;;;;23.01;47.65;100528.38;106508;1254;63328;-76
2023/05/26 06:19:35;;;;;;;12.40;8.70;;;;;;;23.04;47.67;100532.88;106417;1259;60406;-73
2023/05/26 06:22:03;;;;;;;11.30;7.40;;;;;;;23.09;47.28;100536.92;106509;1254;63859;-74
2023/05/26 06:24:30;;;;;;;11.30;8.00;;;;;;;23.15;47.17;100539.35;106595;1255;60371;-72
2023/05/26 06:26:59;;;;;;;9.40;7.50;;;;;;;23.21;47.07;100535.81;106553;1260;61245;-75
2023/05/26 06:29:27;;;;;;;8.10;7.20;;;;;;;23.21;47.26;100535.76;106474;1259;63166;-73
2023/05/26 06:31:54;;;;;;;9.00;7.00;;;;;;;23.24;47.16;100536.93;106561;1259;60469;-75
2023/05/26 06:34:20;;;;;;;10.60;7.70;;;;;;;23.30;47.20;100536.87;106541;1259;63851;-73
2023/05/26 06:36:50;;;;;;;9.00;7.50;;;;;;;23.37;47.12;100537.63;106379;1258;59698;-72
2023/05/26 06:39:17;;;;;;;10.50;7.40;;;;;;;23.42;46.56;100537.76;106605;1256;59351;-73
2023/05/26 06:41:44;;;;;;;9.20;7.40;;;;;;;23.48;46.10;100538.67;106626;1254;63046;-74
2023/05/26 06:44:12;;;;;;;9.00;7.20;;;;;;;23.53;46.16;100538.31;106689;1254;61537;-76
2023/05/26 06:46:39;;;;;;;8.90;6.90;;;;;;;23.59;45.90;100540.05;106591;1259;64095;-74
2023/05/26 06:49:06;;;;;;;9.60;7.20;;;;;;;23.65;45.92;100542.05;106439;1254;59788;-72
2023/05/26 06:51:45;;;;;;;9.30;7.80;;;;;;;23.72;45.74;100544.04;106614;1260;59625;-70
2023/05/26 06:54:12;;;;;;;9.70;7.30;;;;;;;23.77;45.52;100541.19;106502;1256;64505;-71
2023/05/26 06:56:39;;;;;;;9.90;7.20;;;;;;;23.86;45.13;100539.77;106631;1254;60371;-71
2023/05/26 06:59:07;;;;;;;12.40;7.30;;;;;;;23.90;45.26;100540.85;106201;1257;62775;-71
2023/05/26 07:01:34;;;;;;;11.00;7.70;;;;;;;24.01;45.08;100541.63;106492;1257;60174;-73
2023/05/26 07:04:00;;;;;;;10.30;7.40;;;;;;;24.07;43.72;100540.83;106632;1259;59749;-69
2023/05/26 07:06:28;;;;;;;11.30;7.40;;;;;;;24.11;43.37;100538.98;106513;1260;64373;-68
2023/05/26 07:09:13;;;;;;;9.20;6.40;;;;;;;24.15;43.06;100541.50;106625;1260;61325;-71
2023/05/26 07:11:50;;;;;;;9.60;6.70;;;;;;;24.21;43.65;100544.59;106676;1255;63853;-69
2023/05/26 07:14:36;;;;;;;9.20;6.20;;;;;;;24.28;43.42;100542.02;106542;1254;59675;-68
2023/05/26 07:17:04;;;;;;;9.40;6.70;;;;;;;24.36;42.84;100540.05;106538;1257;62038;-71
2023/05/26 07:19:32;;;;;;;8.70;6.10;;;;;;;24.47;42.56;100538.96;106491;1262;64215;-72
2023/05/26 07:21:59;;;;;;;7.60;5.70;;;;;;;24.48;42.71;100541.64;106488;1260;64325;-74
2023/05/26 07:24:27;;;;;;;8.90;6.70;;;;;;;24.56;42.23;100540.49;106433;1254;63996;-72
2023/05/26 07:26:54;;;;;;;8.10;5.80;;;;;;;24.62;41.82;100540.89;106391;1260;59596;-72
2023/05/26 07:29:21;;;;;;;9.30;6.20;;;;;;;24.67;41.48;100545.59;106385;1259;59518;-71
2023/05/26 07:31:48;;;;;;;9.30;6.60;;;;;;;24.73;41.55;100540.65;106527;1255;64490;-69
2023/05/26 07:43:11;;;;;;;8.50;5.70;;;;;;;25.06;40.62;100535.87;108515;1260;59620;-65
2023/05/26 07:45:50;;;;;;;8.10;5.60;;;;;;;25.14;40.05;100534.20;107775;1256;58327;-66
2023/05/26 07:48:17;;;;;;;7.10;5.60;;;;;;;25.23;40.34;100537.11;107863;1256;64372;-65
2023/05/26 07:50:47;;;;;;;8.20;5.20;;;;;;;25.35;40.11;100534.70;106339;1256;60278;-59
2023/05/26 07:53:14;;;;;;;7.80;4.70;;;;;;;25.47;39.97;100533.44;104781;1257;64132;-62
2023/05/26 07:55:41;;;;;;;7.00;4.20;;;;;;;25.57;39.65;100532.27;106409;1257;59471;-70
2023/05/26 07:58:10;;;;;;;8.10;4.50;;;;;;;25.67;39.34;100533.04;106360;1257;59645;-66
2023/05/26 08:00:37;;;;;;;6.70;4.50;;;;;;;25.76;38.76;100537.16;106165;1263;63058;-68
2023/05/26 08:03:04;;;;;;;8.50;4.50;;;;;;;25.84;38.93;100539.29;108404;1256;62772;-73
2023/05/26 08:05:31;;;;;;;6.00;4.30;;;;;;;25.93;38.53;100534.25;106726;1257;67116;-71
2023/05/26 08:07:58;;;;;;;5.50;3.60;;;;;;;26.01;38.58;100531.29;106359;1257;59826;-72
2023/05/26 08:10:25;;;;;;;7.30;4.20;;;;;;;26.08;37.95;100531.52;106446;1260;59657;-70
2023/05/26 08:12:53;;;;;;;6.70;4.10;;;;;;;26.14;36.86;100533.07;106422;1256;62938;-74
2023/05/26 08:15:21;;;;;;;6.20;3.90;;;;;;;26.17;36.73;100531.94;106336;1259;62088;-64
2023/05/26 08:17:48;;;;;;;7.90;4.10;;;;;;;26.20;36.32;100525.93;108496;1256;64065;-72
2023/05/26 08:20:15;;;;;;;5.80;4.10;;;;;;;26.21;35.91;100525.70;108469;1260;57702;-73
2023/05/26 08:22:41;;;;;;;5.80;4.00;;;;;;;26.28;36.24;100525.65;107337;1259;57717;-74
2023/05/26 08:25:08;;;;;;;7.00;3.90;;;;;;;26.36;35.88;100528.36;106308;1257;64268;-75
2023/05/26 08:27:36;;;;;;;7.80;4.80;;;;;;;26.41;35.47;100526.95;106298;1260;61667;-68
2023/05/26 08:30:03;;;;;;;5.80;3.70;;;;;;;26.42;34.76;100526.81;106243;1260;64650;-76
2023/05/26 08:32:31;;;;;;;8.40;4.00;;;;;;;26.39;34.95;100526.77;106208;1256;59957;-76
2023/05/26 08:34:58;;;;;;;7.00;3.60;;;;;;;26.36;35.10;100526.14;106271;1259;59791;-73
2023/05/26 08:37:25;;;;;;;5.70;3.70;;;;;;;26.34;34.74;100527.02;106375;1257;65325;-72
2023/05/26 08:39:56;;;;;;;6.10;4.20;;;;;;;26.32;34.96;100524.52;106187;1256;61597;-71
2023/05/26 08:42:27;;;;;;;8.20;4.50;;;;;;;26.25;35.32;100521.84;108563;1256;62601;-71
2023/05/26 08:45:01;;;;;;;6.20;3.50;;;;;;;26.20;35.53;100519.13;108465;1257;58956;-65
2023/05/26 08:47:34;;;;;;;7.60;4.30;;;;;;;26.15;35.60;100517.84;108535;1258;57474;-65
2023/05/26 08:50:05;;;;;;;7.20;4.60;;;;;;;26.10;35.37;100516.36;108664;1256;62876;-60
2023/05/26 08:52:32;;;;;;;6.00;4.40;;;;;;;26.05;34.82;100514.52;108498;1259;62156;-61
2023/05/26 08:54:59;;;;;;;8.10;4.80;;;;;;;25.98;34.43;100516.09;108312;1256;62802;-66
2023/05/26 08:57:28;;;;;;;6.90;4.70;;;;;;;25.93;34.85;100514.08;108459;1257;58353;-66
2023/05/26 08:59:54;;;;;;;8.10;5.30;;;;;;;25.93;35.64;100514.87;108376;1259;59145;-65
2023/05/26 09:02:21;;;;;;;6.10;4.80;;;;;;;25.94;36.21;100515.02;108575;1257;63171;-65
2023/05/26 09:04:48;;;;;;;13.60;6.30;;;;;;;25.94;36.42;100516.40;108520;1257;60402;-65
2023/05/26 09:07:14;;;;;;;10.40;5.50;;;;;;;25.95;36.34;100512.34;106912;1256;65268;-67
2023/05/26 09:09:45;;;;;;;8.20;6.30;;;;;;;25.97;36.40;100513.70;106451;1259;60160;-61
2023/05/26 09:12:12;;;;;;;8.40;5.90;;;;;;;26.01;36.44;100517.52;105595;1256;59637;-65
2023/05/26 09:14:39;;;;;;;8.40;5.50;;;;;;;26.02;36.78;100521.06;106189;1260;64429;-64
2023/05/26 09:17:08;;;;;;;8.20;5.90;;;;;;;26.01;36.91;100525.19;106279;1256;62073;-61
2023/05/26 09:19:34;;;;;;;8.20;5.00;;;;;;;25.95;35.98;100523.65;103991;1259;64427;-60
2023/05/26 09:22:08;;;;;;;10.60;4.20;;;;;;;25.82;35.18;100520.85;108459;1257;57859;-59
2023/05/26 09:24:46;;;;;;;8.70;4.20;;;;;;;25.61;32.28;100521.17;108526;1259;57854;-58
2023/05/26 09:27:23;;;;;;;7.80;4.30;;;;;;;25.39;31.95;100517.15;108506;1257;63711;-59
2023/05/26 09:29:54;;;;;;;5.90;3.90;;;;;;;25.20;32.56;100524.77;107893;1257;61732;-59
2023/05/26 09:32:28;;;;;;;5.50;3.30;;;;;;;25.07;31.14;100519.42;104234;1262;63702;-59
2023/05/26 09:34:59;;;;;;;9.70;3.90;;;;;;;24.98;30.75;100521.58;108497;1256;60397;-61
2023/05/26 09:37:30;;;;;;;6.30;3.40;;;;;;;24.94;29.09;100508.06;108479;1256;60317;-63
2023/05/26 09:40:10;;;;;;;6.30;3.70;;;;;;;25.06;29.16;100503.73;108498;1257;64936;-61
2023/05/26 09:42:38;;;;;;;5.90;3.60;;;;;;;25.22;30.71;100500.83;106194;1260;61546;-61
2023/05/26 09:45:07;;;;;;;5.20;3.60;;;;;;;25.36;31.91;100497.06;104790;1271;62640;-64
2023/05/26 09:48:00;;;;;;;9.10;3.90;;;;;;;25.45;30.59;100486.40;106209;1260;61696;-63
2023/05/26 09:50:30;;;;;;;8.90;4.40;;;;;;;25.57;30.24;100484.31;108266;1269;59177;-63
2023/05/26 09:52:59;;;;;;;5.60;4.00;;;;;;;25.69;31.73;100482.89;108442;1257;65083;-60
2023/05/26 09:55:25;;;;;;;7.70;4.40;;;;;;;25.78;32.59;100483.52;105968;1256;61852;-62
2023/05/26 09:57:53;;;;;;;7.20;4.60;;;;;;;25.86;32.94;100481.79;108536;1256;62795;-61
2023/05/26 10:00:20;;;;;;;6.00;4.30;;;;;;;25.95;33.48;100480.77;108512;1260;58401;-58
2023/05/26 10:03:15;;;;;;;7.20;4.10;;;;;;;26.04;33.82;100478.84;108522;1256;59898;-58
2023/05/26 10:05:45;;;;;;;5.90;4.20;;;;;;;26.13;34.36;100475.88;108481;1260;65691;-57
2023/05/26 10:08:14;;;;;;;8.50;4.30;;;;;;;26.22;34.34;100474.28;108231;1263;61640;-59
2023/05/26 10:10:41;;;;;;;6.90;5.00;;;;;;;26.32;34.50;100475.21;108217;1256;65925;-59
2023/05/26 10:13:41;;;;;;;6.40;4.50;;;;;;;26.40;34.32;100470.11;108104;1256;68120;-85
2023/05/26 10:16:34;;;;;;;6.00;4.20;;;;;;;26.50;34.36;100469.70;108091;1265;59196;-60
2023/05/26 10:19:01;;;;;;;6.70;4.10;;;;;;;26.58;34.64;100469.55;108074;1264;73657;-67
2023/05/26 10:21:35;;;;;;;9.00;4.90;;;;;;;26.66;34.99;100467.41;107497;1265;61554;-63
2023/05/26 10:24:31;;;;;;;5.30;3.80;;;;;;;26.74;35.39;100464.61;104951;1263;64917;-60
2023/05/26 10:27:00;;;;;;;;;;;;;;;26.82;35.38;100464.92;103492;1265;61128;-66
2023/05/26 10:29:30;;;;;;;6.50;4.30;;;;;;;26.84;34.47;100466.24;103466;1265;60458;-66
2023/05/26 10:31:57;;;;;;;8.10;5.20;;;;;;;26.85;34.52;100464.70;103358;1265;66264;-62
2023/05/26 10:34:37;;;;;;;5.90;4.20;;;;;;;26.86;34.52;100462.73;103293;1268;60581;-62
2023/05/26 10:37:17;;;;;;;7.00;4.70;;;;;;;26.90;34.71;100459.05;105897;1265;63884;-57
2023/05/26 10:39:44;;;;;;;5.80;4.20;;;;;;;26.93;34.07;100451.46;108021;1264;59197;-61
2023/05/26 10:42:17;;;;;;;11.40;4.80;;;;;;;26.97;34.00;100449.52;107832;1263;59009;-60
2023/05/26 10:44:45;;;;;;;8.40;4.20;;;;;;;27.00;33.69;100447.38;105828;1264;64020;-64
2023/05/26 10:47:51;;;;;;;6.10;4.10;;;;;;;27.05;33.63;100445.45;108042;1264;61502;-63
2023/05/26 10:51:00;;;;;;;7.20;3.90;;;;;;;27.16;32.89;100446.86;105070;1270;63909;-59
2023/05/26 10:53:37;;;;;;;;;;;;;;;27.33;31.75;100450.27;103000;1274;62210;-62
2023/05/26 10:56:05;;;;;;;6.90;4.50;;;;;;;27.29;31.44;100450.98;103760;1269;60387;-61
2023/05/26 10:58:36;;;;;;;6.50;4.50;;;;;;;27.42;31.58;100451.42;104054;1264;67003;-62
2023/05/26 11:01:31;;;;;;;5.60;4.40;;;;;;;27.52;31.74;100449.23;107575;1265;62240;-61
2023/05/26 11:04:04;;;;;;;5.60;3.80;;;;;;;27.58;31.67;100444.58;108035;1265;64408;-63
2023/05/26 11:06:42;;;;;;;7.10;4.30;;;;;;;27.72;31.58;100444.02;107612;1265;60502;-63
2023/05/26 11:09:25;;;;;;;5.90;4.10;;;;;;;27.85;31.53;100440.42;105453;1271;59694;-63
2023/05/26 11:11:59;;;;;;;7.10;4.40;;;;;;;28.00;32.05;100440.58;107887;1265;65210;-63
2023/05/26 11:14:29;;;;;;;6.10;4.60;;;;;;;28.18;31.70;100440.84;108080;1264;62183;-61
2023/05/26 11:16:57;;;;;;;6.60;4.70;;;;;;;28.32;30.91;100437.68;107934;1264;64410;-62
2023/05/26 11:19:30;;;;;;;6.80;4.10;;;;;;;28.43;30.98;100433.79;108038;1265;58700;-62
2023/05/26 11:22:00;;;;;;;6.60;4.80;;;;;;;28.53;31.19;100436.91;108055;1265;60836;-61
2023/05/26 11:24:27;;;;;;;6.00;4.10;;;;;;;28.57;30.53;100440.98;107624;1267;67670;-66
2023/05/26 11:26:53;;;;;;;6.70;4.30;;;;;;;28.59;30.32;100437.27;105879;1265;62483;-62
2023/05/26 11:29:21;;;;;;;5.80;4.30;;;;;;;28.60;29.40;100435.45;105877;1265;64419;-63
2023/05/26 11:31:49;;;;;;;7.00;4.90;;;;;;;28.57;29.30;100430.77;105932;1268;59453;-62
2023/05/26 11:34:16;;;;;;;9.30;4.40;;;;;;;28.50;29.48;100432.15;105917;1266;60583;-60
2023/05/26 11:36:47;;;;;;;6.60;4.40;;;;;;;28.41;29.90;100431.70;104507;1271;65224;-59
2023/05/26 11:39:14;;;;;;;8.10;5.30;;;;;;;28.32;30.29;100432.17;103773;1267;60631;-60
2023/05/26 11:41:42;;;;;;;8.00;3.90;;;;;;;28.25;30.97;100434.07;108197;1264;63811;-61
2023/05/26 11:44:09;;;;;;;8.20;4.80;;;;;;;28.20;30.57;100433.70;108118;1264;60412;-61
2023/05/26 11:46:36;;;;;;;6.60;4.20;;;;;;;28.17;30.46;100429.27;108111;1265;59139;-64